Time;durP1;ratioP1;P1;durP2;ratioP2;P2;SDS_P1;SDS_P2;PMS_P1;PMS_P2;Temp;Humidity;BMP_temperature;BMP_pressure;BME280_temperature;BME280_humidity;BME280_pressure;Samples;Min_cycle;Max_cycle;Signal;HPM_P1;HPM_P2
2023/03/18 00:00:44;;;;;;;7.30;6.45;;;11.80;99.90;;;;;;5013816;28;20040;-78
2023/03/18 00:03:10;;;;;;;8.57;7.70;;;11.80;99.90;;;;;;4997889;28;20046;-78
2023/03/18 00:05:36;;;;;;;8.95;8.00;;;11.90;99.90;;;;;;5031882;28;20041;-78
2023/03/18 00:08:03;;;;;;;7.13;6.22;;;11.90;99.90;;;;;;5014124;28;20398;-78
2023/03/18 00:10:30;;;;;;;8.65;5.70;;;11.90;99.90;;;;;;5031353;28;20041;-77
2023/03/18 00:12:56;;;;;;;6.03;5.43;;;12.00;99.90;;;;;;5001852;28;20034;-78
2023/03/18 00:15:23;;;;;;;8.07;5.68;;;12.00;99.90;;;;;;5011547;28;20049;-78
2023/03/18 00:17:49;;;;;;;8.10;5.43;;;12.00;99.90;;;;;;4994204;28;20037;-78
2023/03/18 00:20:17;;;;;;;7.65;5.40;;;12.00;99.90;;;;;;5012021;28;20034;-78
2023/03/18 00:22:44;;;;;;;9.48;5.18;;;12.00;99.90;;;;;;5010070;28;20049;-77
2023/03/18 00:25:11;;;;;;;8.18;4.90;;;11.90;99.90;;;;;;5021997;28;20490;-78
2023/03/18 00:27:38;;;;;;;5.13;4.60;;;11.90;99.90;;;;;;5030324;28;20017;-78
2023/03/18 00:30:05;;;;;;;6.78;4.90;;;11.90;99.90;;;;;;5030867;28;20474;-77
2023/03/18 00:32:32;;;;;;;5.18;4.68;;;12.00;99.90;;;;;;4997347;28;20065;-77
2023/03/18 00:34:58;;;;;;;5.53;4.80;;;12.00;99.90;;;;;;5014133;28;20040;-77
2023/03/18 00:37:30;;;;;;;5.65;4.85;;;12.00;99.90;;;;;;5031438;28;20462;-77
2023/03/18 00:40:05;;;;;;;9.77;4.90;;;12.00;99.90;;;;;;5014480;28;20038;-77
2023/03/18 00:42:46;;;;;;;5.57;4.30;;;12.00;99.90;;;;;;5032039;28;20030;-78
2023/03/18 00:45:14;;;;;;;5.28;4.40;;;12.00;99.90;;;;;;5033400;28;20041;-77
2023/03/18 00:47:42;;;;;;;5.65;4.82;;;12.00;99.90;;;;;;5017598;28;20025;-78
2023/03/18 00:50:09;;;;;;;10.13;5.05;;;12.00;99.90;;;;;;5017417;28;20025;-78
2023/03/18 00:52:36;;;;;;;6.40;5.10;;;12.00;99.90;;;;;;5034963;28;20041;-78
2023/03/18 00:55:02;;;;;;;5.65;5.03;;;12.00;99.90;;;;;;5034491;28;20367;-78
2023/03/18 00:57:28;;;;;;;6.70;4.78;;;12.00;99.90;;;;;;5017219;28;20025;-78
2023/03/18 00:59:55;;;;;;;5.65;4.70;;;11.90;99.90;;;;;;5034675;28;20029;-78
2023/03/18 01:02:22;;;;;;;6.10;4.80;;;11.90;99.90;;;;;;5016637;28;20394;-78
2023/03/18 01:04:49;;;;;;;5.50;4.68;;;11.90;99.90;;;;;;5034568;28;20021;-77
2023/03/18 01:07:16;;;;;;;5.03;4.60;;;11.90;99.90;;;;;;5033449;28;20025;-78
2023/03/18 01:09:42;;;;;;;5.55;4.70;;;11.90;99.90;;;;;;5033132;28;20029;-78
2023/03/18 01:12:08;;;;;;;7.95;4.60;;;11.90;99.90;;;;;;5028082;28;20038;-78
2023/03/18 01:14:36;;;;;;;5.00;4.50;;;11.90;99.90;;;;;;5013502;28;20033;-78
2023/03/18 01:17:03;;;;;;;4.82;4.43;;;11.90;99.90;;;;;;5013001;28;20038;-78
2023/03/18 01:19:29;;;;;;;7.90;5.03;;;11.90;99.90;;;;;;5030001;28;20316;-78
2023/03/18 01:21:55;;;;;;;5.38;4.88;;;11.90;99.90;;;;;;5013088;28;20042;-78
2023/03/18 01:24:21;;;;;;;5.13;4.50;;;11.90;99.90;;;;;;5016656;28;20382;-77
2023/03/18 01:26:48;;;;;;;4.80;4.32;;;11.90;99.90;;;;;;5016682;28;20355;-78
2023/03/18 01:29:14;;;;;;;4.82;4.40;;;12.00;99.90;;;;;;5033083;28;20022;-78
2023/03/18 01:31:40;;;;;;;5.13;4.68;;;12.00;99.90;;;;;;5032325;28;20053;-78
2023/03/18 01:34:06;;;;;;;5.05;4.65;;;12.00;99.90;;;;;;5032923;28;20406;-78
2023/03/18 01:36:33;;;;;;;5.65;4.40;;;12.00;99.90;;;;;;5032883;28;20040;-78
2023/03/18 01:38:59;;;;;;;6.07;4.70;;;11.90;99.90;;;;;;5016115;28;20026;-78
2023/03/18 01:41:25;;;;;;;7.20;5.00;;;11.90;99.90;;;;;;5034002;28;20048;-78
2023/03/18 01:43:53;;;;;;;5.47;4.97;;;11.80;99.90;;;;;;5016346;28;20056;-78
2023/03/18 01:46:43;;;;;;;7.50;4.72;;;11.80;99.90;;;;;;5033524;28;20490;-78
2023/03/18 01:49:13;;;;;;;5.40;4.90;;;11.80;99.90;;;;;;5032560;28;20520;-77
2023/03/18 01:51:40;;;;;;;6.45;4.28;;;11.80;99.90;;;;;;5016406;28;20041;-78
2023/03/18 01:54:07;;;;;;;5.60;4.43;;;11.70;99.90;;;;;;5033157;28;20458;-77
2023/03/18 01:56:35;;;;;;;6.18;4.90;;;11.60;99.90;;;;;;5033832;28;20513;-78
2023/03/18 01:59:01;;;;;;;5.00;4.32;;;11.60;99.90;;;;;;5016711;28;20144;-78
2023/03/18 02:01:48;;;;;;;6.43;4.53;;;11.60;99.90;;;;;;5015783;28;20398;-78
2023/03/18 02:04:14;;;;;;;4.93;4.10;;;11.60;99.90;;;;;;5032543;28;20482;-78
2023/03/18 02:06:41;;;;;;;5.00;4.03;;;11.50;99.90;;;;;;5015792;28;20044;-78
2023/03/18 02:09:07;;;;;;;5.28;4.80;;;11.50;99.90;;;;;;5032701;28;20429;-78
2023/03/18 02:11:36;;;;;;;5.25;4.30;;;11.40;99.90;;;;;;5030820;28;20045;-78
2023/03/18 02:14:02;;;;;;;5.43;4.03;;;11.30;99.90;;;;;;5029264;28;20030;-78
2023/03/18 02:16:34;;;;;;;6.40;3.92;;;11.30;99.90;;;;;;5011699;28;20042;-78
2023/03/18 02:19:10;;;;;;;4.68;4.07;;;11.30;99.90;;;;;;5012437;28;20501;-78
2023/03/18 02:22:04;;;;;;;4.80;4.40;;;11.30;99.90;;;;;;5029001;28;20041;-78
2023/03/18 02:24:40;;;;;;;7.97;4.28;;;11.30;99.90;;;;;;5036359;28;20028;-77
2023/03/18 02:27:15;;;;;;;4.38;3.97;;;11.30;99.90;;;;;;5032218;28;20460;-78
2023/03/18 02:29:42;;;;;;;4.78;4.38;;;11.30;99.90;;;;;;5033313;28;20029;-77
2023/03/18 02:32:08;;;;;;;6.20;4.32;;;11.30;99.90;;;;;;5031476;28;20050;-78
2023/03/18 02:34:34;;;;;;;6.93;4.43;;;11.20;99.90;;;;;;4999536;28;20030;-77
2023/03/18 02:37:00;;;;;;;4.80;4.40;;;11.20;99.90;;;;;;5031683;28;20030;-78
2023/03/18 02:39:28;;;;;;;4.65;3.92;;;11.20;99.90;;;;;;5015617;28;20181;-78
2023/03/18 02:41:55;;;;;;;4.22;3.90;;;11.10;99.90;;;;;;5031755;28;20370;-78
2023/03/18 02:44:21;;;;;;;4.35;3.25;;;11.10;99.90;;;;;;5031910;28;20029;-78
2023/03/18 02:46:54;;;;;;;5.03;4.05;;;11.10;99.90;;;;;;5031437;28;20045;-78
2023/03/18 02:49:21;;;;;;;4.50;4.15;;;11.10;99.90;;;;;;5031805;28;20033;-78
2023/03/18 02:51:48;;;;;;;4.60;4.03;;;11.10;99.90;;;;;;5031200;28;20037;-78
2023/03/18 02:54:16;;;;;;;5.93;4.32;;;11.00;99.90;;;;;;5015471;28;20062;-78
2023/03/18 02:56:43;;;;;;;6.47;4.20;;;11.00;99.90;;;;;;5031654;28;20028;-78
2023/03/18 02:59:10;;;;;;;4.47;4.07;;;11.00;99.90;;;;;;5015357;28;20026;-78
2023/03/18 03:01:36;;;;;;;4.90;4.18;;;11.00;99.90;;;;;;5032698;28;20044;-78
2023/03/18 03:04:02;;;;;;;4.85;4.00;;;11.00;99.90;;;;;;5014682;28;20022;-78
2023/03/18 03:06:28;;;;;;;5.15;4.20;;;11.00;99.90;;;;;;5031004;28;20022;-77
2023/03/18 03:08:56;;;;;;;7.82;4.80;;;10.90;99.90;;;;;;5015245;28;20025;-78
2023/03/18 03:11:22;;;;;;;4.95;4.40;;;11.00;99.90;;;;;;5015063;28;20406;-78
2023/03/18 03:13:48;;;;;;;6.38;4.57;;;10.90;99.90;;;;;;5028020;28;20030;-78
2023/03/18 03:16:16;;;;;;;6.28;4.15;;;10.90;99.90;;;;;;5011263;28;20368;-78
2023/03/18 03:18:42;;;;;;;4.97;4.47;;;11.00;99.90;;;;;;5028117;28;20030;-78
2023/03/18 03:21:09;;;;;;;4.93;4.53;;;10.90;99.90;;;;;;5012447;28;20061;-78
2023/03/18 03:23:35;;;;;;;5.07;4.43;;;10.90;99.90;;;;;;5007983;28;20053;-78
2023/03/18 03:26:03;;;;;;;5.97;4.47;;;10.80;99.90;;;;;;5028391;28;20057;-78
2023/03/18 03:28:31;;;;;;;4.80;3.97;;;10.80;99.90;;;;;;5031185;28;20037;-78
2023/03/18 03:30:57;;;;;;;5.25;4.68;;;10.80;99.90;;;;;;5032114;28;20046;-78
2023/03/18 03:33:23;;;;;;;5.93;4.55;;;10.80;99.90;;;;;;5030719;28;20045;-75
2023/03/18 03:35:49;;;;;;;5.60;4.53;;;10.80;99.90;;;;;;5014839;28;20037;-78
2023/03/18 03:38:16;;;;;;;4.55;4.10;;;10.80;99.90;;;;;;5031135;28;20570;-78
2023/03/18 03:40:42;;;;;;;5.05;4.20;;;10.80;99.90;;;;;;5031059;28;20037;-78
2023/03/18 03:43:11;;;;;;;4.90;4.28;;;10.70;99.90;;;;;;5014563;28;20409;-78
2023/03/18 03:45:38;;;;;;;5.75;4.63;;;10.70;99.90;;;;;;5014312;28;20042;-78
2023/03/18 03:48:04;;;;;;;6.88;4.18;;;10.80;99.90;;;;;;4998051;28;20056;-78
2023/03/18 03:50:30;;;;;;;4.70;4.28;;;10.80;99.90;;;;;;5032166;28;20033;-78
2023/03/18 03:52:57;;;;;;;5.68;4.43;;;10.80;99.90;;;;;;5031082;28;20045;-78
2023/03/18 03:55:23;;;;;;;4.95;4.55;;;10.80;99.90;;;;;;5014578;28;20025;-78
2023/03/18 03:57:50;;;;;;;4.95;4.10;;;10.80;99.90;;;;;;5014626;28;20041;-78
2023/03/18 04:00:19;;;;;;;4.90;4.38;;;10.80;99.90;;;;;;5030698;28;20044;-78
2023/03/18 04:02:45;;;;;;;7.13;4.40;;;10.80;99.90;;;;;;5030410;28;20045;-78
2023/03/18 04:05:12;;;;;;;5.28;4.35;;;10.80;99.90;;;;;;5030856;28;20033;-78
2023/03/18 04:07:39;;;;;;;6.00;4.18;;;10.90;99.90;;;;;;5014721;28;20018;-78
2023/03/18 04:10:05;;;;;;;6.50;4.20;;;10.90;99.90;;;;;;5014414;28;20052;-78
2023/03/18 04:12:31;;;;;;;5.22;4.57;;;11.00;99.90;;;;;;5004824;28;20368;-78
2023/03/18 04:14:58;;;;;;;7.88;4.47;;;10.90;99.90;;;;;;5011125;28;20037;-79
2023/03/18 04:17:24;;;;;;;5.13;3.90;;;11.00;99.90;;;;;;5013425;28;20061;-78
2023/03/18 04:19:50;;;;;;;5.25;4.30;;;11.00;99.90;;;;;;5016034;28;20053;-79
2023/03/18 04:22:17;;;;;;;5.78;4.03;;;10.90;99.90;;;;;;5015802;28;20041;-78
2023/03/18 04:24:43;;;;;;;7.03;4.07;;;11.00;99.90;;;;;;5022751;28;20605;-78
2023/03/18 04:27:10;;;;;;;4.88;3.92;;;11.00;99.90;;;;;;5034538;28;20030;-78
2023/03/18 04:29:36;;;;;;;5.97;4.10;;;11.00;99.90;;;;;;5035560;28;20033;-78
2023/03/18 04:32:03;;;;;;;5.07;4.15;;;11.00;99.90;;;;;;5033423;28;20065;-78
2023/03/18 04:34:29;;;;;;;4.50;4.03;;;11.00;99.90;;;;;;5035620;28;20395;-78
2023/03/18 04:36:55;;;;;;;6.43;3.78;;;11.00;99.90;;;;;;5035507;28;20036;-78
2023/03/18 04:39:21;;;;;;;5.38;4.10;;;11.10;99.90;;;;;;5017916;28;20029;-78
2023/03/18 04:41:47;;;;;;;4.18;3.78;;;11.00;99.90;;;;;;5033986;28;20526;-78
2023/03/18 04:44:14;;;;;;;6.57;3.70;;;11.10;99.90;;;;;;5034358;28;20077;-79
2023/03/18 04:46:40;;;;;;;5.20;3.70;;;11.10;99.90;;;;;;5034461;28;20512;-78
2023/03/18 04:49:06;;;;;;;4.65;3.90;;;11.20;99.90;;;;;;5034040;28;20029;-78
2023/03/18 04:51:32;;;;;;;4.45;3.70;;;11.20;99.90;;;;;;5033909;28;20486;-78
2023/03/18 04:53:58;;;;;;;4.78;3.42;;;11.20;99.90;;;;;;5035032;28;20037;-78
2023/03/18 04:56:24;;;;;;;5.65;3.70;;;11.20;99.90;;;;;;5034841;28;20041;-78
2023/03/18 04:58:50;;;;;;;5.60;3.58;;;11.20;99.90;;;;;;5035382;28;20040;-78
2023/03/18 05:01:16;;;;;;;4.50;3.33;;;11.20;99.90;;;;;;5034042;28;20025;-78
2023/03/18 05:03:43;;;;;;;6.60;3.90;;;11.20;99.90;;;;;;5034825;28;20041;-78
2023/03/18 05:06:12;;;;;;;4.47;4.00;;;11.20;99.90;;;;;;5035118;28;20029;-79
2023/03/18 05:08:38;;;;;;;7.43;3.70;;;11.20;99.90;;;;;;5001452;28;20041;-78
2023/03/18 05:11:04;;;;;;;4.95;3.78;;;11.30;99.90;;;;;;5034713;28;20056;-79
2023/03/18 05:13:30;;;;;;;6.38;3.60;;;11.30;99.90;;;;;;5016003;28;20038;-79
2023/03/18 05:15:58;;;;;;;4.85;3.55;;;11.30;99.90;;;;;;5012954;28;20582;-79
2023/03/18 05:18:24;;;;;;;4.05;3.65;;;11.30;99.90;;;;;;5014876;28;20471;-78
2023/03/18 05:20:50;;;;;;;4.10;3.42;;;11.30;99.90;;;;;;5014856;28;20054;-78
2023/03/18 05:23:16;;;;;;;6.00;3.47;;;11.30;99.90;;;;;;5013536;28;20061;-78
2023/03/18 05:25:42;;;;;;;4.18;3.63;;;11.30;99.90;;;;;;5029571;28;20034;-78
2023/03/18 05:28:09;;;;;;;5.82;3.92;;;11.30;99.90;;;;;;5034310;28;20037;-78
2023/03/18 05:30:38;;;;;;;5.40;3.53;;;11.30;99.90;;;;;;5033775;28;20480;-78
2023/03/18 05:33:04;;;;;;;4.65;3.67;;;11.40;99.90;;;;;;5016783;28;20057;-78
2023/03/18 05:35:30;;;;;;;7.90;3.70;;;11.40;99.90;;;;;;5034337;28;20053;-78
2023/03/18 05:37:56;;;;;;;4.47;3.55;;;11.40;99.90;;;;;;5032996;28;20053;-78
2023/03/18 05:40:22;;;;;;;5.68;3.47;;;11.40;99.90;;;;;;5034342;28;20029;-78
2023/03/18 05:42:48;;;;;;;5.20;4.30;;;11.40;99.90;;;;;;5034064;28;20440;-79
2023/03/18 05:45:15;;;;;;;4.45;3.75;;;11.40;99.90;;;;;;5032382;28;20029;-77
2023/03/18 05:47:41;;;;;;;5.05;3.88;;;11.40;99.90;;;;;;5034055;28;20033;-77
2023/03/18 05:50:07;;;;;;;7.72;3.65;;;11.50;99.90;;;;;;5033148;28;20397;-77
2023/03/18 05:52:33;;;;;;;6.47;4.03;;;11.40;99.90;;;;;;5033971;28;20041;-77
2023/03/18 05:55:00;;;;;;;5.82;3.58;;;11.40;99.90;;;;;;5034077;28;20481;-78
2023/03/18 05:57:27;;;;;;;5.40;3.90;;;11.40;99.90;;;;;;5033897;28;20037;-77
2023/03/18 05:59:53;;;;;;;4.32;3.65;;;11.50;99.90;;;;;;5033628;28;20199;-78
2023/03/18 06:02:19;;;;;;;7.15;3.80;;;11.40;99.90;;;;;;5032438;28;20037;-77
2023/03/18 06:04:45;;;;;;;4.55;3.28;;;11.50;99.90;;;;;;5033757;28;20029;-77
2023/03/18 06:07:12;;;;;;;6.95;3.80;;;11.50;99.90;;;;;;5033862;28;20052;-78
2023/03/18 06:09:38;;;;;;;4.45;3.95;;;11.50;99.90;;;;;;5034150;28;20046;-78
2023/03/18 06:12:04;;;;;;;7.35;4.05;;;11.50;99.90;;;;;;5026553;28;20053;-78
2023/03/18 06:14:30;;;;;;;6.28;3.70;;;11.50;99.90;;;;;;5012307;28;20034;-78
2023/03/18 06:16:56;;;;;;;6.53;3.78;;;11.50;99.90;;;;;;5012338;28;20038;-77
2023/03/18 06:19:24;;;;;;;5.90;3.72;;;11.50;99.90;;;;;;5013530;28;20037;-77
2023/03/18 06:21:50;;;;;;;6.00;4.03;;;11.50;99.90;;;;;;5028647;28;20046;-76
2023/03/18 06:24:16;;;;;;;7.35;4.57;;;11.50;99.90;;;;;;5016876;28;20037;-76
2023/03/18 06:26:42;;;;;;;8.43;4.35;;;11.50;99.90;;;;;;5033325;28;20036;-76
2023/03/18 06:29:09;;;;;;;7.53;4.68;;;11.50;99.90;;;;;;5031918;28;20489;-76
2023/03/18 06:31:36;;;;;;;8.05;4.55;;;11.50;99.90;;;;;;5032998;28;20034;-77
2023/03/18 06:34:03;;;;;;;12.13;4.53;;;11.60;99.90;;;;;;5032113;28;20026;-77
2023/03/18 06:36:30;;;;;;;7.68;4.50;;;11.60;99.90;;;;;;5031997;28;20032;-77
2023/03/18 06:38:56;;;;;;;6.95;4.10;;;11.60;99.90;;;;;;5031441;28;20414;-77
2023/03/18 06:41:22;;;;;;;5.22;4.00;;;11.70;99.90;;;;;;5033118;28;20060;-80
2023/03/18 06:43:50;;;;;;;8.10;4.25;;;11.70;99.90;;;;;;5032699;28;20037;-77
2023/03/18 06:46:17;;;;;;;8.82;4.18;;;11.70;99.90;;;;;;5032702;28;20040;-78
2023/03/18 06:48:43;;;;;;;10.32;4.75;;;11.80;99.90;;;;;;5032972;28;20493;-78
2023/03/18 06:51:10;;;;;;;8.52;4.68;;;11.80;99.90;;;;;;5031934;28;20397;-77
2023/03/18 06:53:36;;;;;;;9.98;5.30;;;11.80;99.90;;;;;;5015496;28;20056;-77
2023/03/18 06:56:03;;;;;;;7.85;4.30;;;11.80;99.90;;;;;;5032873;28;20044;-78
2023/03/18 06:58:30;;;;;;;8.15;4.47;;;11.80;99.90;;;;;;5015065;28;20029;-78
2023/03/18 07:00:57;;;;;;;7.03;4.35;;;11.80;99.90;;;;;;5031188;28;20032;-77
2023/03/18 07:03:24;;;;;;;5.38;4.28;;;11.80;99.90;;;;;;5031703;28;20042;-78
2023/03/18 07:05:51;;;;;;;9.30;4.50;;;11.80;99.90;;;;;;5032713;28;20040;-78
2023/03/18 07:08:17;;;;;;;8.07;4.95;;;11.80;99.90;;;;;;5032670;28;20029;-78
2023/03/18 07:10:43;;;;;;;9.02;4.63;;;11.80;99.90;;;;;;5014779;28;20036;-78
2023/03/18 07:13:12;;;;;;;6.20;4.00;;;11.80;99.90;;;;;;5016240;28;20052;-78
2023/03/18 07:15:38;;;;;;;8.98;4.40;;;11.80;99.90;;;;;;5011284;28;20033;-78
2023/03/18 07:18:05;;;;;;;8.20;4.25;;;11.80;99.90;;;;;;5012808;28;20391;-78
2023/03/18 07:20:32;;;;;;;10.43;4.10;;;11.90;99.90;;;;;;5011303;28;20387;-78
2023/03/18 07:22:58;;;;;;;9.13;4.15;;;11.90;99.90;;;;;;5011524;28;20042;-78
2023/03/18 07:25:24;;;;;;;9.80;4.18;;;11.80;99.90;;;;;;5023448;28;20040;-77
2023/03/18 07:27:50;;;;;;;8.00;4.53;;;11.80;99.90;;;;;;5031054;28;20459;-77
2023/03/18 07:30:17;;;;;;;7.70;4.57;;;11.90;99.90;;;;;;5031962;28;20025;-78
2023/03/18 07:32:44;;;;;;;7.35;4.45;;;11.90;99.90;;;;;;5031039;28;20037;-77
2023/03/18 07:35:13;;;;;;;7.63;4.45;;;12.00;99.90;;;;;;5031151;28;20033;-78
2023/03/18 07:37:40;;;;;;;8.98;4.65;;;12.00;99.90;;;;;;5031162;28;20026;-77
2023/03/18 07:40:07;;;;;;;7.45;4.35;;;12.00;99.90;;;;;;5030788;28;20036;-78
2023/03/18 07:42:33;;;;;;;8.73;4.20;;;12.10;99.90;;;;;;5031046;28;20033;-78
2023/03/18 07:45:00;;;;;;;6.88;4.30;;;12.10;99.90;;;;;;5014825;28;20056;-77
2023/03/18 07:47:26;;;;;;;12.30;5.22;;;12.10;99.90;;;;;;5031721;28;20478;-78
2023/03/18 07:49:52;;;;;;;6.50;4.30;;;12.10;99.90;;;;;;5032190;28;20037;-78
2023/03/18 07:52:18;;;;;;;9.77;4.55;;;12.20;99.90;;;;;;5034372;28;20091;-77
2023/03/18 07:54:44;;;;;;;8.38;4.57;;;12.20;99.90;;;;;;5034798;28;20033;-77
2023/03/18 07:57:11;;;;;;;9.25;4.32;;;12.20;99.90;;;;;;5034923;28;20103;-77
2023/03/18 07:59:37;;;;;;;9.43;4.18;;;12.20;99.90;;;;;;5035141;28;20026;-77
2023/03/18 08:02:05;;;;;;;7.22;4.38;;;12.20;99.90;;;;;;5035562;28;20041;-77
2023/03/18 08:04:31;;;;;;;7.60;4.22;;;12.20;99.90;;;;;;5018404;28;20045;-78
2023/03/18 08:06:57;;;;;;;8.70;4.65;;;12.20;99.90;;;;;;5034830;28;20374;-77
2023/03/18 08:09:23;;;;;;;8.88;4.50;;;12.20;99.90;;;;;;5035706;28;20025;-77
2023/03/18 08:11:49;;;;;;;6.55;4.68;;;12.20;99.90;;;;;;5030796;28;20041;-77
2023/03/18 08:14:16;;;;;;;7.53;5.78;;;12.20;99.90;;;;;;5016183;28;20073;-77
2023/03/18 08:16:42;;;;;;;8.23;7.30;;;12.20;99.90;;;;;;5015659;28;20038;-77
2023/03/18 08:19:08;;;;;;;11.48;8.38;;;12.20;99.90;;;;;;5014863;28;20026;-77
2023/03/18 08:21:34;;;;;;;8.48;6.10;;;12.20;99.90;;;;;;5014627;28;20045;-77
2023/03/18 08:24:00;;;;;;;8.93;6.22;;;12.20;99.90;;;;;;5016550;28;20029;-77
2023/03/18 08:26:27;;;;;;;12.65;6.88;;;12.10;99.90;;;;;;5035567;28;20040;-79
2023/03/18 08:28:53;;;;;;;8.75;6.22;;;12.20;99.90;;;;;;5035563;28;20030;-76
2023/03/18 08:31:19;;;;;;;8.25;7.45;;;12.10;99.90;;;;;;5017291;28;20040;-76
2023/03/18 08:33:46;;;;;;;9.27;8.35;;;12.20;99.90;;;;;;5034237;28;20398;-76
2023/03/18 08:36:12;;;;;;;11.90;8.88;;;12.20;99.90;;;;;;5035813;28;20398;-76
2023/03/18 08:38:39;;;;;;;8.70;7.75;;;12.20;99.90;;;;;;5033858;28;20033;-77
2023/03/18 08:41:05;;;;;;;11.45;9.55;;;12.20;99.90;;;;;;5035323;28;20022;-76
2023/03/18 08:43:31;;;;;;;9.55;8.65;;;12.20;99.90;;;;;;5035310;28;20025;-76
2023/03/18 08:45:58;;;;;;;9.63;8.50;;;12.20;99.90;;;;;;5016861;28;20486;-75
2023/03/18 08:48:24;;;;;;;11.35;8.18;;;12.20;99.90;;;;;;5035174;28;20056;-75
2023/03/18 08:50:51;;;;;;;8.48;7.45;;;12.20;99.90;;;;;;5035077;28;20029;-76
2023/03/18 08:53:18;;;;;;;10.07;6.63;;;12.20;99.90;;;;;;5017211;28;20037;-75
2023/03/18 08:55:45;;;;;;;9.40;8.05;;;12.20;99.90;;;;;;5033686;28;20423;-75
2023/03/18 08:58:11;;;;;;;8.63;7.93;;;12.20;99.90;;;;;;5033800;28;20414;-75
2023/03/18 09:00:38;;;;;;;7.47;6.78;;;12.20;99.90;;;;;;5034782;28;20038;-75
2023/03/18 09:03:04;;;;;;;6.32;5.63;;;12.20;99.90;;;;;;5016376;28;20037;-76
2023/03/18 09:05:31;;;;;;;13.50;6.63;;;12.20;99.90;;;;;;5034805;28;20042;-76
2023/03/18 09:07:57;;;;;;;9.23;6.82;;;12.30;99.90;;;;;;5017043;28;20040;-76
2023/03/18 09:10:24;;;;;;;6.88;6.28;;;12.30;99.90;;;;;;5033734;28;20040;-75
2023/03/18 09:12:50;;;;;;;7.85;5.82;;;12.30;99.90;;;;;;5001789;28;20046;-75
2023/03/18 09:15:19;;;;;;;6.82;5.32;;;12.30;99.90;;;;;;4995022;28;20041;-75
2023/03/18 09:17:45;;;;;;;8.70;6.03;;;12.30;99.90;;;;;;4994222;28;20034;-76
2023/03/18 09:20:13;;;;;;;7.50;5.43;;;12.30;99.90;;;;;;4994095;28;20042;-75
2023/03/18 09:22:43;;;;;;;11.15;5.80;;;12.30;99.90;;;;;;4997910;28;20513;-75
2023/03/18 09:25:09;;;;;;;7.00;5.15;;;12.30;99.90;;;;;;5007427;28;20030;-75
2023/03/18 09:27:35;;;;;;;6.85;5.78;;;12.30;99.90;;;;;;5033317;28;20033;-75
2023/03/18 09:30:02;;;;;;;9.88;5.90;;;12.30;99.90;;;;;;5033265;28;20394;-74
2023/03/18 09:32:28;;;;;;;7.90;5.47;;;12.30;99.90;;;;;;5015796;28;20041;-74
2023/03/18 09:34:55;;;;;;;10.93;5.68;;;12.30;99.90;;;;;;5033194;28;20033;-75
2023/03/18 09:37:21;;;;;;;11.50;5.70;;;12.40;99.90;;;;;;5016392;28;20401;-74
2023/03/18 09:39:47;;;;;;;8.25;5.18;;;12.40;99.90;;;;;;5034231;28;20021;-75
2023/03/18 09:42:40;;;;;;;9.55;5.63;;;12.40;99.90;;;;;;5033143;28;20474;-74
2023/03/18 09:45:45;;;;;;;9.40;5.68;;;12.50;99.90;;;;;;5032542;28;20025;-74
2023/03/18 09:48:21;;;;;;;8.32;5.30;;;12.50;99.90;;;;;;5033107;28;20528;-74
2023/03/18 09:51:09;;;;;;;10.25;6.38;;;12.50;99.90;;;;;;5033680;28;20040;-74
2023/03/18 09:53:57;;;;;;;6.82;5.85;;;12.50;99.90;;;;;;5032846;28;20048;-74
2023/03/18 09:56:25;;;;;;;9.20;5.57;;;12.50;99.90;;;;;;5015902;28;20038;-74
2023/03/18 09:59:03;;;;;;;6.78;6.18;;;12.50;99.90;;;;;;5032547;28;20029;-74
2023/03/18 10:01:29;;;;;;;7.07;5.35;;;12.60;99.90;;;;;;5015936;28;20026;-73
2023/03/18 10:04:06;;;;;;;5.97;5.25;;;12.60;99.90;;;;;;5016245;28;20355;-74
2023/03/18 10:06:32;;;;;;;8.00;5.35;;;12.60;99.90;;;;;;5033372;28;20038;-74
2023/03/18 10:09:44;;;;;;;7.45;5.72;;;12.60;99.90;;;;;;5016209;28;20496;-74
2023/03/18 10:12:31;;;;;;;5.57;4.78;;;12.70;99.90;;;;;;5019114;28;20137;-74
2023/03/18 10:15:12;;;;;;;5.95;5.20;;;12.70;99.90;;;;;;4995402;28;20426;-74
2023/03/18 10:17:58;;;;;;;5.80;5.28;;;12.70;99.90;;;;;;4995710;28;20030;-74
2023/03/18 10:21:01;;;;;;;5.38;4.88;;;12.70;99.90;;;;;;4996909;28;20495;-74
2023/03/18 10:23:40;;;;;;;6.10;5.05;;;12.70;99.90;;;;;;5011323;28;20050;-73
2023/03/18 10:26:39;;;;;;;5.82;5.30;;;12.70;99.90;;;;;;5013049;28;20025;-73
2023/03/18 10:29:33;;;;;;;5.40;4.93;;;12.80;99.90;;;;;;5031121;28;20041;-73
2023/03/18 10:32:11;;;;;;;5.47;4.97;;;12.80;99.90;;;;;;5014095;28;20056;-73
2023/03/18 10:35:04;;;;;;;5.88;5.20;;;12.80;99.90;;;;;;5015089;28;20044;-73
2023/03/18 10:38:11;;;;;;;6.03;5.40;;;12.90;99.90;;;;;;5017183;28;20427;-73
2023/03/18 10:40:38;;;;;;;6.30;5.22;;;12.90;99.90;;;;;;5014427;28;20056;-73
2023/03/18 10:43:24;;;;;;;6.13;5.50;;;12.90;99.90;;;;;;5014419;28;20037;-73
2023/03/18 10:45:58;;;;;;;5.53;5.03;;;12.90;99.90;;;;;;5015453;28;20041;-73
2023/03/18 10:48:45;;;;;;;5.47;4.97;;;13.00;99.90;;;;;;4998155;28;20037;-73
2023/03/18 10:51:58;;;;;;;6.00;5.40;;;13.00;99.90;;;;;;5028590;28;20025;-73
2023/03/18 10:54:40;;;;;;;6.13;5.38;;;13.00;99.90;;;;;;5007116;28;20502;-73
2023/03/18 10:57:13;;;;;;;6.25;5.65;;;13.00;99.90;;;;;;5012559;28;20037;-73
2023/03/18 10:59:43;;;;;;;6.47;5.35;;;13.00;99.90;;;;;;4994168;28;20042;-73
2023/03/18 11:02:15;;;;;;;5.60;5.03;;;13.00;99.90;;;;;;5009821;28;20040;-73
2023/03/18 11:04:47;;;;;;;5.55;5.05;;;13.10;99.90;;;;;;5028483;28;20037;-73
2023/03/18 11:07:18;;;;;;;5.53;5.03;;;13.00;99.90;;;;;;4962847;28;20037;-73
2023/03/18 11:09:44;;;;;;;5.50;5.10;;;13.10;99.90;;;;;;4978356;28;20038;-73
2023/03/18 11:12:15;;;;;;;7.75;4.93;;;13.20;99.90;;;;;;4981163;28;20030;-73
2023/03/18 11:14:46;;;;;;;5.75;5.25;;;13.20;99.90;;;;;;5004460;28;20042;-73
2023/03/18 11:17:18;;;;;;;5.13;4.63;;;13.30;99.90;;;;;;4993922;28;20038;-73
2023/03/18 11:19:47;;;;;;;5.03;4.57;;;13.30;99.90;;;;;;5010124;28;20518;-73
2023/03/18 11:22:26;;;;;;;5.20;4.82;;;13.30;99.90;;;;;;4978391;28;20056;-73
2023/03/18 11:25:18;;;;;;;4.90;4.50;;;13.40;99.90;;;;;;4994009;28;20030;-73
2023/03/18 11:27:50;;;;;;;4.88;4.47;;;13.50;99.90;;;;;;4977390;28;20391;-73
2023/03/18 11:30:22;;;;;;;;;;;13.60;99.90;;;;;;4994599;28;20029;-73
2023/03/18 11:33:04;;;;;;;4.57;4.28;;;13.60;99.90;;;;;;5031807;28;19913;-73
2023/03/18 11:35:49;;;;;;;4.82;4.53;;;13.50;99.90;;;;;;5031220;28;20032;-73
2023/03/18 11:38:32;;;;;;;5.18;4.78;;;13.50;99.90;;;;;;5031063;28;20021;-73
2023/03/18 11:41:16;;;;;;;5.03;4.72;;;13.50;99.90;;;;;;5030993;28;20493;-73
2023/03/18 11:44:00;;;;;;;5.22;4.82;;;13.50;99.90;;;;;;5032185;28;20030;-72
2023/03/18 11:46:35;;;;;;;4.97;4.57;;;13.30;99.90;;;;;;5031222;28;20402;-73
2023/03/18 11:49:01;;;;;;;4.80;4.55;;;13.30;99.90;;;;;;5015539;28;20033;-73
2023/03/18 11:51:39;;;;;;;4.50;4.28;;;13.20;99.90;;;;;;5030869;28;20036;-71
2023/03/18 11:54:20;;;;;;;5.00;4.70;;;13.20;99.90;;;;;;5031942;28;20041;-72
2023/03/18 11:56:47;;;;;;;5.20;4.90;;;13.30;99.90;;;;;;5032256;28;20093;-71
2023/03/18 11:59:28;;;;;;;5.00;4.63;;;13.20;99.90;;;;;;5030739;28;20029;-72
2023/03/18 12:02:19;;;;;;;5.05;4.55;;;13.10;99.90;;;;;;5029979;28;20038;-72
2023/03/18 12:04:53;;;;;;;5.00;4.70;;;13.10;99.90;;;;;;5027609;28;20033;-72
2023/03/18 12:07:58;;;;;;;5.13;4.75;;;13.20;99.90;;;;;;5011102;28;20041;-72
2023/03/18 12:10:35;;;;;;;4.82;4.43;;;13.30;99.90;;;;;;5011137;28;20037;-72
2023/03/18 12:13:10;;;;;;;5.32;4.93;;;13.20;99.90;;;;;;4990798;28;20061;-72
2023/03/18 12:15:52;;;;;;;4.70;4.43;;;13.20;99.90;;;;;;4991939;28;20395;-72
2023/03/18 12:18:37;;;;;;;4.47;4.18;;;13.20;99.90;;;;;;4991434;28;20033;-71
2023/03/18 12:21:09;;;;;;;4.68;4.32;;;13.10;99.90;;;;;;5007609;28;20038;-72
2023/03/18 12:24:01;;;;;;;4.30;4.05;;;13.10;99.90;;;;;;5003422;28;20503;-72
2023/03/18 12:26:37;;;;;;;5.03;4.60;;;13.10;99.90;;;;;;4990208;28;20039;-72
2023/03/18 12:29:24;;;;;;;5.15;4.80;;;13.10;99.90;;;;;;4974996;28;20491;-72
2023/03/18 12:32:11;;;;;;;4.95;4.60;;;13.10;99.90;;;;;;4989268;28;20031;-72
2023/03/18 12:34:40;;;;;;;4.90;4.50;;;13.20;99.90;;;;;;4975086;28;20046;-72
2023/03/18 12:37:23;;;;;;;5.10;4.70;;;13.20;99.90;;;;;;4975403;28;20495;-72
2023/03/18 12:40:28;;;;;;;5.15;4.75;;;13.30;99.90;;;;;;4978343;28;20552;-72
2023/03/18 12:43:19;;;;;;;5.50;5.10;;;13.30;99.90;;;;;;4993200;28;20062;-72
2023/03/18 12:45:47;;;;;;;4.90;4.60;;;13.30;99.90;;;;;;4976604;28;20034;-72
2023/03/18 12:48:26;;;;;;;5.90;5.22;;;13.40;99.90;;;;;;4977616;28;20023;-72
2023/03/18 12:51:02;;;;;;;5.88;5.38;;;13.40;99.90;;;;;;4977733;28;20534;-71
2023/03/18 12:53:33;;;;;;;6.22;5.72;;;13.50;99.90;;;;;;4961356;28;20050;-72
2023/03/18 12:56:11;;;;;;;5.10;4.65;;;13.70;99.90;;;;;;4961519;28;20034;-72
2023/03/18 12:58:58;;;;;;;5.85;5.35;;;13.90;99.90;;;;;;4977577;28;20057;-72
2023/03/18 13:01:33;;;;;;;4.70;4.40;;;14.00;99.90;;;;;;4972502;28;20042;-72